createdAt,value
2019-05-06T00:00:13.937Z,8.70
2019-05-06T00:02:43.613Z,8.70
2019-05-06T00:05:14.288Z,8.60
2019-05-06T00:07:44.453Z,8.60
2019-05-06T00:10:27.761Z,8.60
2019-05-06T00:12:56.443Z,8.60
2019-05-06T00:15:25.200Z,8.50
2019-05-06T00:17:54.007Z,8.50
2019-05-06T00:20:24.409Z,8.40
2019-05-06T00:22:54.673Z,8.40
2019-05-06T00:25:40.704Z,8.40
2019-05-06T00:28:24.426Z,8.30
2019-05-06T00:31:10.387Z,8.30
2019-05-06T00:33:30.936Z,8.20
2019-05-06T00:36:00.563Z,8.20
2019-05-06T00:38:29.176Z,8.20
2019-05-06T00:41:04.944Z,8.10
2019-05-06T00:43:34.513Z,8.10
2019-05-06T00:46:04.722Z,8.00
2019-05-06T00:48:34.108Z,8.00
2019-05-06T00:51:04.466Z,8.00
2019-05-06T00:53:34.790Z,8.00
2019-05-06T00:56:04.554Z,7.90
2019-05-06T00:58:34.728Z,7.90
2019-05-06T01:01:04.708Z,7.90
2019-05-06T01:03:34.694Z,7.90
2019-05-06T01:06:03.915Z,7.90
2019-05-06T01:08:34.647Z,7.90
2019-05-06T01:11:04.123Z,7.80
2019-05-06T01:13:35.090Z,7.80
2019-05-06T01:16:04.248Z,7.80
2019-05-06T01:18:34.053Z,7.80
2019-05-06T01:21:11.453Z,7.70
2019-05-06T01:23:43.771Z,7.70
2019-05-06T01:26:15.171Z,7.70
2019-05-06T01:28:44.650Z,7.70
2019-05-06T01:31:14.094Z,7.70
2019-05-06T01:33:42.560Z,7.60
2019-05-06T01:36:11.090Z,7.60
2019-05-06T01:38:57.140Z,7.60
2019-05-06T01:41:27.219Z,7.60
2019-05-06T01:43:55.814Z,7.50
2019-05-06T01:46:24.625Z,7.50
2019-05-06T01:48:53.630Z,7.50
2019-05-06T01:51:24.067Z,7.50
2019-05-06T01:53:54.386Z,7.50
2019-05-06T01:56:24.115Z,7.50
2019-05-06T01:58:53.613Z,7.40
2019-05-06T02:01:22.187Z,7.40
2019-05-06T02:03:50.630Z,7.40
2019-05-06T02:06:19.061Z,7.40
2019-05-06T02:08:47.513Z,7.40
2019-05-06T02:11:15.959Z,7.40
2019-05-06T02:13:44.835Z,7.30
2019-05-06T02:16:14.653Z,7.30
2019-05-06T02:18:44.875Z,7.30
2019-05-06T02:21:15.285Z,7.30
2019-05-06T02:23:45.364Z,7.30
2019-05-06T02:26:14.233Z,7.30
2019-05-06T02:28:44.321Z,7.20
2019-05-06T02:31:30.809Z,7.30
2019-05-06T02:34:01.416Z,7.30
2019-05-06T02:36:40.154Z,7.30
2019-05-06T02:39:08.599Z,7.30
2019-05-06T02:41:37.103Z,7.30
2019-05-06T02:44:09.923Z,7.30
2019-05-06T02:46:36.943Z,7.30
2019-05-06T02:49:23.704Z,7.30
2019-05-06T02:51:53.543Z,7.30
2019-05-06T02:54:23.467Z,7.30
2019-05-06T02:56:53.158Z,7.30
2019-05-06T02:59:24.043Z,7.20
2019-05-06T03:01:53.834Z,7.20
2019-05-06T03:04:23.627Z,7.20
2019-05-06T03:06:53.270Z,7.20
2019-05-06T03:09:23.307Z,7.20
2019-05-06T03:11:53.936Z,7.20
2019-05-06T03:14:23.338Z,7.20
2019-05-06T03:16:53.820Z,7.20
2019-05-06T03:19:24.049Z,7.20
2019-05-06T03:22:06.257Z,7.20
2019-05-06T03:24:36.426Z,7.20
2019-05-06T03:27:05.090Z,7.20
2019-05-06T03:29:33.729Z,7.20
2019-05-06T03:32:07.023Z,7.20
2019-05-06T03:34:52.971Z,7.20
2019-05-06T03:37:07.693Z,7.20
2019-05-06T03:39:33.839Z,7.20
2019-05-06T03:42:04.655Z,7.20
2019-05-06T03:44:33.837Z,7.20
2019-05-06T03:47:15.827Z,7.20
2019-05-06T03:49:49.779Z,7.20
2019-05-06T03:52:16.329Z,7.20
2019-05-06T03:54:46.404Z,7.10
2019-05-06T03:57:15.094Z,7.10
2019-05-06T03:59:44.440Z,7.10
2019-05-06T04:02:13.484Z,7.10
2019-05-06T04:04:44.037Z,7.10
2019-05-06T04:07:13.897Z,7.10
2019-05-06T04:09:44.197Z,7.10
2019-05-06T04:12:13.624Z,7.00
2019-05-06T04:14:43.318Z,7.10
2019-05-06T04:17:26.244Z,7.10
2019-05-06T04:19:59.483Z,7.10
2019-05-06T04:22:33.338Z,7.10
2019-05-06T04:25:09.651Z,7.10
2019-05-06T04:27:43.014Z,7.10
2019-05-06T04:30:13.519Z,7.00
2019-05-06T04:32:43.468Z,7.00
2019-05-06T04:35:13.455Z,7.00
2019-05-06T04:37:43.058Z,7.00
2019-05-06T04:40:13.001Z,7.00
2019-05-06T04:42:44.442Z,7.00
2019-05-06T04:45:16.852Z,7.00
2019-05-06T04:47:43.543Z,7.10
2019-05-06T04:50:13.365Z,7.10
2019-05-06T04:52:43.368Z,7.10
2019-05-06T04:55:13.948Z,7.10
2019-05-06T04:57:44.090Z,7.10
2019-05-06T05:00:13.277Z,7.10
2019-05-06T05:02:45.873Z,7.10
2019-05-06T05:05:13.943Z,7.10
2019-05-06T05:07:42.909Z,7.10
2019-05-06T05:10:24.891Z,7.10
2019-05-06T05:12:58.075Z,7.10
2019-05-06T05:15:28.186Z,7.10
2019-05-06T05:18:13.520Z,7.10
2019-05-06T05:20:46.520Z,7.10
2019-05-06T05:23:12.161Z,7.00
2019-05-06T05:25:42.620Z,7.10
2019-05-06T05:28:12.973Z,7.10
2019-05-06T05:30:42.979Z,7.10
2019-05-06T05:33:12.294Z,7.10
2019-05-06T05:35:43.112Z,7.10
2019-05-06T05:38:12.974Z,7.20
2019-05-06T05:40:43.021Z,7.20
2019-05-06T05:43:28.633Z,7.20
2019-05-06T05:45:57.126Z,7.20
2019-05-06T05:48:43.621Z,7.20
2019-05-06T05:51:12.734Z,7.20
2019-05-06T05:53:42.611Z,7.10
2019-05-06T05:56:12.336Z,7.10
2019-05-06T05:58:42.425Z,7.10
2019-05-06T06:01:12.622Z,7.10
2019-05-06T06:03:42.154Z,7.20
2019-05-06T06:06:12.662Z,7.20
2019-05-06T06:08:43.122Z,7.30
2019-05-06T06:11:16.433Z,7.20
2019-05-06T06:13:45.108Z,7.20
2019-05-06T06:16:18.074Z,7.30
2019-05-06T06:19:03.335Z,7.30
2019-05-06T06:21:33.922Z,7.40
2019-05-06T06:24:13.222Z,7.50
2019-05-06T06:26:42.996Z,7.50
2019-05-06T06:29:12.499Z,7.60
2019-05-06T06:31:42.896Z,7.60
2019-05-06T06:34:13.082Z,7.70
2019-05-06T06:36:49.398Z,7.70
2019-05-06T06:39:22.898Z,7.70
2019-05-06T06:41:51.951Z,7.70
2019-05-06T06:44:24.833Z,7.80
2019-05-06T06:46:53.422Z,7.80
2019-05-06T06:49:22.378Z,7.80
2019-05-06T06:51:53.150Z,7.80
2019-05-06T06:54:22.875Z,7.80
2019-05-06T06:57:08.362Z,7.80
2019-05-06T06:59:33.655Z,7.80
2019-05-06T07:02:18.866Z,7.80
2019-05-06T07:04:49.011Z,7.90
2019-05-06T07:07:19.085Z,7.90
2019-05-06T07:09:47.533Z,7.90
2019-05-06T07:12:15.987Z,7.90
2019-05-06T07:14:44.504Z,8.00
2019-05-06T07:17:13.423Z,8.00
2019-05-06T07:19:46.313Z,8.00
2019-05-06T07:22:14.761Z,8.10
2019-05-06T07:24:43.230Z,8.20
2019-05-06T07:27:13.355Z,8.20
2019-05-06T07:29:48.264Z,8.30
2019-05-06T07:32:12.342Z,8.30
2019-05-06T07:34:42.036Z,8.40
2019-05-06T07:37:12.505Z,8.40
2019-05-06T07:39:43.149Z,8.50
2019-05-06T07:42:18.564Z,8.50
2019-05-06T07:44:48.761Z,8.50
2019-05-06T07:47:32.959Z,8.60
2019-05-06T07:50:02.418Z,8.70
2019-05-06T07:52:32.587Z,8.70
2019-05-06T07:55:02.547Z,8.70
2019-05-06T07:57:33.030Z,8.80
2019-05-06T08:00:03.443Z,8.80
2019-05-06T08:02:32.111Z,8.90
2019-05-06T08:05:02.574Z,8.90
2019-05-06T08:07:33.113Z,8.90
2019-05-06T08:10:02.132Z,9.00
2019-05-06T08:12:32.677Z,9.10
2019-05-06T08:15:04.507Z,9.10
2019-05-06T08:17:33.276Z,9.20
2019-05-06T08:20:02.649Z,9.30
2019-05-06T08:22:44.501Z,9.30
2019-05-06T08:25:13.107Z,9.40
2019-05-06T08:27:42.539Z,9.30
2019-05-06T08:30:12.885Z,9.40
2019-05-06T08:32:42.476Z,9.50
2019-05-06T08:35:13.250Z,9.50
2019-05-06T08:37:42.742Z,9.50
2019-05-06T08:40:11.956Z,9.50
2019-05-06T08:42:42.627Z,9.60
2019-05-06T08:45:12.870Z,9.70
2019-05-06T08:47:42.611Z,9.70
2019-05-06T08:50:18.813Z,9.70
2019-05-06T08:53:05.027Z,9.70
2019-05-06T08:55:36.487Z,9.80
2019-05-06T08:58:05.058Z,9.80
2019-05-06T09:00:35.173Z,9.80
2019-05-06T09:03:04.533Z,9.80
2019-05-06T09:05:33.242Z,9.80
2019-05-06T09:08:03.582Z,9.80
2019-05-06T09:10:32.473Z,9.80
2019-05-06T09:13:02.041Z,9.80
2019-05-06T09:15:32.551Z,9.70
2019-05-06T09:18:02.803Z,9.70
2019-05-06T09:20:32.602Z,9.70
2019-05-06T09:23:04.534Z,9.70
2019-05-06T09:25:32.292Z,9.70
2019-05-06T09:28:13.166Z,9.80
2019-05-06T09:30:46.538Z,9.80
2019-05-06T09:33:16.653Z,9.80
2019-05-06T09:35:45.092Z,9.80
2019-05-06T09:38:13.517Z,9.80
2019-05-06T09:40:43.290Z,9.90
2019-05-06T09:43:13.208Z,10.00
2019-05-06T09:45:42.570Z,10.10
2019-05-06T09:48:13.057Z,10.10
2019-05-06T09:50:46.063Z,10.20
2019-05-06T09:53:15.018Z,10.20
2019-05-06T09:55:52.279Z,10.20
2019-05-06T09:58:22.857Z,10.40
2019-05-06T10:00:55.600Z,10.50
2019-05-06T10:03:24.011Z,10.70
2019-05-06T10:05:53.092Z,10.90
2019-05-06T10:08:22.736Z,11.10
2019-05-06T10:10:58.673Z,11.20
2019-05-06T10:13:21.557Z,11.20
2019-05-06T10:15:51.954Z,11.20
2019-05-06T10:18:22.495Z,11.40
2019-05-06T10:20:50.535Z,11.40
2019-05-06T10:23:19.056Z,11.50
2019-05-06T10:25:47.503Z,11.60
2019-05-06T10:28:27.457Z,11.60
2019-05-06T10:30:55.905Z,11.70
2019-05-06T10:33:26.023Z,11.70
2019-05-06T10:35:54.462Z,11.90
2019-05-06T10:38:42.362Z,12.00
2019-05-06T10:41:14.020Z,12.10
2019-05-06T10:43:54.438Z,12.30
2019-05-06T10:46:22.879Z,12.40
2019-05-06T10:48:53.016Z,12.50
2019-05-06T10:51:28.829Z,12.60
2019-05-06T10:53:57.334Z,12.70
2019-05-06T10:56:27.482Z,12.80
2019-05-06T10:58:57.546Z,12.80
2019-05-06T11:01:32.960Z,12.70
2019-05-06T11:04:02.781Z,12.70
2019-05-06T11:06:33.490Z,12.70
2019-05-06T11:09:03.248Z,12.70
2019-05-06T11:11:37.912Z,12.60
2019-05-06T11:14:03.107Z,12.50
2019-05-06T11:16:33.261Z,12.50
2019-05-06T11:19:04.887Z,12.40
2019-05-06T11:21:32.839Z,12.30
2019-05-06T11:24:01.448Z,12.20
2019-05-06T11:26:29.867Z,12.10
2019-05-06T11:29:05.655Z,12.00
2019-05-06T11:31:44.272Z,12.00
2019-05-06T11:34:26.497Z,11.90
2019-05-06T11:37:05.364Z,11.90
2019-05-06T11:39:33.792Z,11.80
2019-05-06T11:42:23.977Z,11.80
2019-05-06T11:44:32.429Z,11.80
2019-05-06T11:47:03.203Z,11.70
2019-05-06T11:49:32.668Z,11.70
2019-05-06T11:52:02.450Z,11.70
2019-05-06T11:54:33.559Z,11.60
2019-05-06T11:57:02.930Z,11.60
2019-05-06T11:59:31.543Z,11.50
2019-05-06T12:02:07.739Z,11.50
2019-05-06T12:04:36.253Z,11.40
2019-05-06T12:07:11.123Z,11.40
2019-05-06T12:09:36.522Z,11.40
2019-05-06T12:12:05.102Z,11.30
2019-05-06T12:14:33.635Z,11.30
2019-05-06T12:17:02.330Z,11.30
2019-05-06T12:19:32.410Z,11.30
2019-05-06T12:22:00.981Z,11.30
2019-05-06T12:24:29.429Z,11.30
2019-05-06T12:26:57.915Z,11.30
2019-05-06T12:29:26.349Z,11.30
2019-05-06T12:31:56.454Z,11.40
2019-05-06T12:34:25.165Z,11.40
2019-05-06T12:36:55.238Z,11.50
2019-05-06T12:39:25.050Z,11.50
2019-05-06T12:42:00.815Z,11.50
2019-05-06T12:44:32.246Z,11.50
2019-05-06T12:47:04.780Z,11.60
2019-05-06T12:49:33.245Z,11.60
2019-05-06T12:52:01.675Z,11.70
2019-05-06T12:54:30.203Z,11.70
2019-05-06T12:56:59.576Z,11.80
2019-05-06T12:59:28.078Z,12.00
2019-05-06T13:01:56.524Z,12.20
2019-05-06T13:04:44.454Z,12.30
2019-05-06T13:06:55.323Z,12.40
2019-05-06T13:09:23.755Z,12.60
2019-05-06T13:11:52.509Z,12.80
2019-05-06T13:14:22.349Z,12.90
2019-05-06T13:16:53.024Z,12.90
2019-05-06T13:19:22.855Z,13.00
2019-05-06T13:21:51.479Z,13.30
2019-05-06T13:24:19.892Z,13.50
2019-05-06T13:26:48.334Z,13.50
2019-05-06T13:29:18.407Z,13.50
2019-05-06T13:31:46.851Z,13.40
2019-05-06T13:34:19.981Z,13.30
2019-05-06T13:36:48.645Z,13.20
2019-05-06T13:39:17.263Z,13.10
2019-05-06T13:41:45.694Z,13.00
2019-05-06T13:44:15.436Z,13.00
2019-05-06T13:46:45.597Z,12.80
2019-05-06T13:49:22.772Z,12.80
2019-05-06T13:52:04.446Z,12.70
2019-05-06T13:54:32.176Z,12.70
2019-05-06T13:57:02.756Z,12.70
2019-05-06T13:59:31.051Z,12.80
2019-05-06T14:02:16.103Z,13.00
2019-05-06T14:04:44.309Z,13.20
2019-05-06T14:07:13.233Z,13.50
2019-05-06T14:09:43.626Z,13.70
2019-05-06T14:12:12.011Z,13.60
2019-05-06T14:14:42.835Z,13.70
2019-05-06T14:17:12.322Z,13.90
2019-05-06T14:19:42.989Z,14.20
2019-05-06T14:22:12.505Z,14.50
2019-05-06T14:24:43.201Z,14.70
2019-05-06T14:27:22.147Z,14.90
2019-05-06T14:29:55.042Z,15.10
2019-05-06T14:32:23.802Z,15.10
2019-05-06T14:34:52.281Z,15.30
2019-05-06T14:37:22.579Z,15.40
2019-05-06T14:39:58.571Z,15.50
2019-05-06T14:42:22.746Z,15.40
2019-05-06T14:44:51.190Z,15.20
2019-05-06T14:47:23.275Z,15.30
2019-05-06T14:49:52.991Z,15.30
2019-05-06T14:52:22.646Z,15.20
2019-05-06T14:54:55.609Z,15.00
2019-05-06T14:57:25.169Z,14.90
2019-05-06T14:59:55.466Z,14.60
2019-05-06T15:02:26.883Z,14.50
2019-05-06T15:04:55.685Z,14.50
2019-05-06T15:07:24.181Z,14.30
2019-05-06T15:10:02.592Z,14.30
2019-05-06T15:12:23.398Z,14.20
2019-05-06T15:14:52.801Z,14.20
2019-05-06T15:17:22.925Z,14.30
2019-05-06T15:19:52.572Z,14.40
2019-05-06T15:22:22.648Z,14.60
2019-05-06T15:24:53.603Z,14.70
2019-05-06T15:27:22.741Z,14.90
2019-05-06T15:29:54.157Z,15.00
2019-05-06T15:32:30.274Z,15.00
2019-05-06T15:35:02.496Z,15.00
2019-05-06T15:37:37.904Z,14.90
2019-05-06T15:40:12.067Z,14.70
2019-05-06T15:42:42.332Z,14.60
2019-05-06T15:45:12.449Z,14.50
2019-05-06T15:47:42.581Z,14.40
2019-05-06T15:50:12.705Z,14.50
2019-05-06T15:52:43.566Z,14.60
2019-05-06T15:55:11.995Z,14.70
2019-05-06T15:57:40.435Z,14.80
2019-05-06T16:00:09.695Z,14.80
2019-05-06T16:02:38.230Z,14.70
2019-05-06T16:05:13.630Z,14.70
2019-05-06T16:07:38.078Z,14.60
2019-05-06T16:10:09.757Z,14.50
2019-05-06T16:12:38.202Z,14.40
2019-05-06T16:15:07.900Z,14.30
2019-05-06T16:17:36.365Z,14.20
2019-05-06T16:20:06.031Z,14.20
2019-05-06T16:22:34.572Z,14.30
2019-05-06T16:25:13.083Z,14.30
2019-05-06T16:27:43.852Z,14.40
2019-05-06T16:30:13.509Z,14.40
2019-05-06T16:32:42.340Z,14.30
2019-05-06T16:35:11.969Z,14.30
2019-05-06T16:37:42.169Z,14.20
2019-05-06T16:40:12.368Z,14.20
2019-05-06T16:42:45.419Z,14.10
2019-05-06T16:45:12.557Z,14.10
2019-05-06T16:47:44.371Z,14.00
2019-05-06T16:50:14.481Z,14.00
2019-05-06T16:52:45.489Z,14.00
2019-05-06T16:55:17.980Z,13.90
2019-05-06T16:57:48.138Z,13.90
2019-05-06T17:00:18.337Z,13.90
2019-05-06T17:03:04.260Z,13.80
2019-05-06T17:05:42.327Z,13.80
2019-05-06T17:08:12.311Z,13.80
2019-05-06T17:10:43.091Z,13.70
2019-05-06T17:13:12.649Z,13.60
2019-05-06T17:15:41.247Z,13.60
2019-05-06T17:18:09.699Z,13.50
2019-05-06T17:20:38.104Z,13.40
2019-05-06T17:23:06.623Z,13.40
2019-05-06T17:25:35.166Z,13.40
2019-05-06T17:28:22.119Z,13.40
2019-05-06T17:31:07.857Z,13.30
2019-05-06T17:33:37.954Z,13.30
2019-05-06T17:36:09.961Z,13.20
2019-05-06T17:38:54.962Z,13.20
2019-05-06T17:41:26.582Z,13.20
2019-05-06T17:43:53.574Z,13.10
2019-05-06T17:46:26.253Z,13.10
2019-05-06T17:48:56.402Z,13.10
2019-05-06T17:51:26.454Z,13.10
2019-05-06T17:53:56.345Z,13.00
2019-05-06T17:56:25.026Z,13.00
2019-05-06T17:58:53.629Z,13.00
2019-05-06T18:01:26.503Z,13.00
2019-05-06T18:03:55.033Z,13.00
2019-05-06T18:06:23.576Z,12.90
2019-05-06T18:08:52.827Z,12.90
2019-05-06T18:11:22.418Z,12.90
2019-05-06T18:13:52.145Z,12.90
2019-05-06T18:16:22.269Z,12.90
2019-05-06T18:18:52.313Z,12.90
2019-05-06T18:21:22.998Z,12.80
2019-05-06T18:23:52.278Z,12.80
2019-05-06T18:26:22.974Z,12.80
2019-05-06T18:28:52.658Z,12.80
2019-05-06T18:31:22.134Z,12.80
2019-05-06T18:33:52.758Z,12.70
2019-05-06T18:36:22.702Z,12.70
2019-05-06T18:38:52.560Z,12.70
2019-05-06T18:41:23.423Z,12.70
2019-05-06T18:43:53.553Z,12.70
2019-05-06T18:46:22.038Z,12.70
2019-05-06T18:48:52.494Z,12.60
2019-05-06T18:51:22.339Z,12.60
2019-05-06T18:53:52.396Z,12.60
2019-05-06T18:56:22.414Z,12.60
2019-05-06T18:58:53.102Z,12.60
2019-05-06T19:01:23.204Z,12.60
2019-05-06T19:03:53.396Z,12.60
2019-05-06T19:06:23.209Z,12.60
2019-05-06T19:08:59.245Z,12.50
2019-05-06T19:11:27.868Z,12.50
2019-05-06T19:13:56.347Z,12.50
2019-05-06T19:16:24.868Z,12.50
2019-05-06T19:18:53.391Z,12.50
2019-05-06T19:21:24.334Z,12.40
2019-05-06T19:23:54.886Z,12.40
2019-05-06T19:26:22.265Z,12.40
2019-05-06T19:28:52.644Z,12.30
2019-05-06T19:31:22.800Z,12.30
2019-05-06T19:33:52.618Z,12.20
2019-05-06T19:36:23.424Z,12.20
2019-05-06T19:38:51.484Z,12.20
2019-05-06T19:41:22.208Z,12.10
2019-05-06T19:43:52.251Z,12.10
2019-05-06T19:46:20.349Z,12.10
2019-05-06T19:48:48.922Z,12.10
2019-05-06T19:51:17.363Z,12.10
2019-05-06T19:53:45.865Z,12.00
2019-05-06T19:56:14.446Z,12.00
2019-05-06T19:58:43.100Z,12.00
2019-05-06T20:01:13.050Z,12.00
2019-05-06T20:03:41.546Z,11.90
2019-05-06T20:06:27.990Z,11.90
2019-05-06T20:09:02.346Z,11.90
2019-05-06T20:11:33.144Z,11.90
2019-05-06T20:14:02.118Z,11.90
2019-05-06T20:16:32.298Z,11.80
2019-05-06T20:19:02.309Z,11.80
2019-05-06T20:21:32.899Z,11.80
2019-05-06T20:24:02.303Z,11.80
2019-05-06T20:26:32.469Z,11.90
2019-05-06T20:29:02.202Z,11.80
2019-05-06T20:31:32.158Z,11.90
2019-05-06T20:34:02.284Z,11.80
2019-05-06T20:36:33.041Z,11.80
2019-05-06T20:39:02.552Z,11.80
2019-05-06T20:41:32.882Z,11.80
2019-05-06T20:44:02.779Z,11.80
2019-05-06T20:46:32.327Z,11.80
2019-05-06T20:49:02.436Z,11.70
2019-05-06T20:51:32.819Z,11.70
2019-05-06T20:54:01.452Z,11.70
2019-05-06T20:56:30.011Z,11.70
2019-05-06T20:58:58.447Z,11.70
2019-05-06T21:01:27.046Z,11.70
2019-05-06T21:03:55.534Z,11.70
2019-05-06T21:06:24.113Z,11.70
2019-05-06T21:08:53.039Z,11.70
2019-05-06T21:11:26.402Z,11.70
2019-05-06T21:13:51.735Z,11.70
2019-05-06T21:16:22.374Z,11.70
2019-05-06T21:18:52.147Z,11.70
2019-05-06T21:21:20.634Z,11.70
2019-05-06T21:23:49.093Z,11.60
2019-05-06T21:26:17.613Z,11.60
2019-05-06T21:28:46.491Z,11.50
2019-05-06T21:31:15.037Z,11.50
2019-05-06T21:33:46.307Z,11.50
2019-05-06T21:36:14.747Z,11.50
2019-05-06T21:38:43.220Z,11.50
2019-05-06T21:41:12.365Z,11.50
2019-05-06T21:43:47.077Z,11.50
2019-05-06T21:46:12.975Z,11.50
2019-05-06T21:48:42.077Z,11.40
2019-05-06T21:51:12.290Z,11.40
2019-05-06T21:53:40.808Z,11.40
2019-05-06T21:56:09.275Z,11.30
2019-05-06T21:58:37.732Z,11.30
2019-05-06T22:01:08.175Z,11.30
2019-05-06T22:03:36.755Z,11.30
2019-05-06T22:06:05.234Z,11.20
2019-05-06T22:08:33.826Z,11.20
2019-05-06T22:11:02.958Z,11.20
2019-05-06T22:13:33.245Z,11.20
2019-05-06T22:16:04.646Z,11.20
2019-05-06T22:18:32.210Z,11.20
2019-05-06T22:21:11.271Z,11.20
2019-05-06T22:23:59.273Z,11.20
2019-05-06T22:26:27.931Z,11.20
2019-05-06T22:28:56.713Z,11.20
2019-05-06T22:31:25.710Z,11.20
2019-05-06T22:33:55.290Z,11.20
2019-05-06T22:36:23.885Z,11.20
2019-05-06T22:38:53.151Z,11.10
2019-05-06T22:41:23.063Z,11.10
2019-05-06T22:43:53.153Z,11.10
2019-05-06T22:46:23.432Z,11.10
2019-05-06T22:48:54.101Z,11.00
2019-05-06T22:51:22.891Z,11.00
2019-05-06T22:53:53.463Z,11.00
2019-05-06T22:56:22.885Z,10.90
2019-05-06T22:58:52.409Z,10.90
2019-05-06T23:01:34.765Z,10.80
2019-05-06T23:04:03.388Z,10.80
2019-05-06T23:06:32.957Z,10.80
2019-05-06T23:09:02.524Z,10.70
2019-05-06T23:11:32.876Z,10.70
2019-05-06T23:14:02.707Z,10.60
2019-05-06T23:16:32.856Z,10.60
2019-05-06T23:19:02.110Z,10.50
2019-05-06T23:21:30.699Z,10.50
2019-05-06T23:23:59.215Z,10.50
2019-05-06T23:26:27.657Z,10.50
2019-05-06T23:28:56.146Z,10.40
2019-05-06T23:31:24.741Z,10.40
2019-05-06T23:33:53.484Z,10.40
2019-05-06T23:36:22.881Z,10.30
2019-05-06T23:39:27.690Z,10.30
2019-05-06T23:42:32.369Z,10.20
2019-05-06T23:45:36.630Z,10.20
2019-05-06T23:48:42.905Z,10.10
2019-05-06T23:51:47.029Z,10.10
2019-05-06T23:54:52.281Z,10.10
2019-05-06T23:57:19.683Z,10.00
2019-05-06T23:59:48.102Z,10.00
